sensor_id;sensor_type;location;lat;lon;timestamp;P1;durP1;ratioP1;P2;durP2;ratioP2
62790;SDS011;48830;53.426;10.300;2022-10-18T00:00:55;12.32;;;8.32;;
62790;SDS011;48830;53.426;10.300;2022-10-18T00:03:20;13.70;;;7.93;;
62790;SDS011;48830;53.426;10.300;2022-10-18T00:05:46;12.52;;;8.82;;
62790;SDS011;48830;53.426;10.300;2022-10-18T00:08:13;13.70;;;7.88;;
62790;SDS011;48830;53.426;10.300;2022-10-18T00:10:38;12.80;;;8.25;;
62790;SDS011;48830;53.426;10.300;2022-10-18T00:13:03;14.82;;;8.95;;
62790;SDS011;48830;53.426;10.300;2022-10-18T00:15:29;15.63;;;9.10;;
62790;SDS011;48830;53.426;10.300;2022-10-18T00:17:54;13.90;;;9.10;;
62790;SDS011;48830;53.426;10.300;2022-10-18T00:20:20;14.35;;;9.85;;
62790;SDS011;48830;53.426;10.300;2022-10-18T00:22:45;14.57;;;9.23;;
62790;SDS011;48830;53.426;10.300;2022-10-18T00:25:11;17.50;;;10.40;;
62790;SDS011;48830;53.426;10.300;2022-10-18T00:27:37;13.48;;;9.60;;
62790;SDS011;48830;53.426;10.300;2022-10-18T00:30:03;17.33;;;9.88;;
62790;SDS011;48830;53.426;10.300;2022-10-18T00:32:29;17.73;;;10.80;;
62790;SDS011;48830;53.426;10.300;2022-10-18T00:34:55;16.30;;;10.10;;
62790;SDS011;48830;53.426;10.300;2022-10-18T00:37:20;14.98;;;9.73;;
62790;SDS011;48830;53.426;10.300;2022-10-18T00:39:45;14.15;;;9.52;;
62790;SDS011;48830;53.426;10.300;2022-10-18T00:42:20;13.90;;;10.00;;
62790;SDS011;48830;53.426;10.300;2022-10-18T00:47:14;15.57;;;10.52;;
62790;SDS011;48830;53.426;10.300;2022-10-18T00:49:47;15.35;;;10.43;;
62790;SDS011;48830;53.426;10.300;2022-10-18T00:55:02;14.10;;;10.32;;
62790;SDS011;48830;53.426;10.300;2022-10-18T00:57:30;16.80;;;10.80;;
62790;SDS011;48830;53.426;10.300;2022-10-18T00:59:56;18.33;;;11.43;;
62790;SDS011;48830;53.426;10.300;2022-10-18T01:02:21;16.17;;;10.18;;
62790;SDS011;48830;53.426;10.300;2022-10-18T01:04:48;16.45;;;10.63;;
62790;SDS011;48830;53.426;10.300;2022-10-18T01:15:21;15.93;;;10.70;;
62790;SDS011;48830;53.426;10.300;2022-10-18T01:17:59;18.85;;;11.43;;
62790;SDS011;48830;53.426;10.300;2022-10-18T01:31:34;20.08;;;12.88;;
62790;SDS011;48830;53.426;10.300;2022-10-18T01:34:07;18.60;;;12.30;;
62790;SDS011;48830;53.426;10.300;2022-10-18T01:36:34;20.85;;;12.60;;
62790;SDS011;48830;53.426;10.300;2022-10-18T01:39:04;19.00;;;11.20;;
62790;SDS011;48830;53.426;10.300;2022-10-18T01:41:33;16.33;;;10.82;;
62790;SDS011;48830;53.426;10.300;2022-10-18T01:44:03;14.70;;;9.45;;
62790;SDS011;48830;53.426;10.300;2022-10-18T01:46:32;14.93;;;10.05;;
62790;SDS011;48830;53.426;10.300;2022-10-18T01:48:57;15.27;;;9.68;;
62790;SDS011;48830;53.426;10.300;2022-10-18T01:51:27;17.08;;;10.30;;
62790;SDS011;48830;53.426;10.300;2022-10-18T01:53:55;12.50;;;9.20;;
62790;SDS011;48830;53.426;10.300;2022-10-18T02:02:05;19.40;;;12.07;;
62790;SDS011;48830;53.426;10.300;2022-10-18T02:10:08;25.15;;;13.93;;
62790;SDS011;48830;53.426;10.300;2022-10-18T02:12:38;20.65;;;12.90;;
62790;SDS011;48830;53.426;10.300;2022-10-18T02:15:07;26.38;;;14.32;;
62790;SDS011;48830;53.426;10.300;2022-10-18T02:17:36;21.65;;;14.77;;
62790;SDS011;48830;53.426;10.300;2022-10-18T02:20:04;24.98;;;15.15;;
62790;SDS011;48830;53.426;10.300;2022-10-18T02:22:32;20.83;;;13.88;;
62790;SDS011;48830;53.426;10.300;2022-10-18T02:25:01;22.05;;;14.95;;
62790;SDS011;48830;53.426;10.300;2022-10-18T02:27:30;25.70;;;14.80;;
62790;SDS011;48830;53.426;10.300;2022-10-18T02:29:55;21.30;;;13.65;;
62790;SDS011;48830;53.426;10.300;2022-10-18T02:32:40;25.05;;;14.80;;
62790;SDS011;48830;53.426;10.300;2022-10-18T02:35:18;23.42;;;15.20;;
62790;SDS011;48830;53.426;10.300;2022-10-18T02:37:49;21.85;;;14.85;;
62790;SDS011;48830;53.426;10.300;2022-10-18T02:40:17;25.63;;;15.52;;
62790;SDS011;48830;53.426;10.300;2022-10-18T02:42:48;26.00;;;15.23;;
62790;SDS011;48830;53.426;10.300;2022-10-18T02:45:17;24.00;;;15.38;;
62790;SDS011;48830;53.426;10.300;2022-10-18T02:47:43;24.48;;;15.40;;
62790;SDS011;48830;53.426;10.300;2022-10-18T02:50:08;25.48;;;14.90;;
62790;SDS011;48830;53.426;10.300;2022-10-18T02:52:34;22.58;;;15.02;;
62790;SDS011;48830;53.426;10.300;2022-10-18T02:54:59;23.95;;;15.80;;
62790;SDS011;48830;53.426;10.300;2022-10-18T02:57:26;24.42;;;15.88;;
62790;SDS011;48830;53.426;10.300;2022-10-18T02:59:51;23.52;;;15.57;;
62790;SDS011;48830;53.426;10.300;2022-10-18T03:02:17;27.15;;;15.85;;
62790;SDS011;48830;53.426;10.300;2022-10-18T03:04:42;27.92;;;17.10;;
62790;SDS011;48830;53.426;10.300;2022-10-18T03:07:08;26.88;;;17.00;;
62790;SDS011;48830;53.426;10.300;2022-10-18T03:09:33;23.17;;;15.68;;
62790;SDS011;48830;53.426;10.300;2022-10-18T03:11:59;23.30;;;14.82;;
62790;SDS011;48830;53.426;10.300;2022-10-18T03:14:24;23.88;;;15.90;;
62790;SDS011;48830;53.426;10.300;2022-10-18T03:16:50;27.60;;;16.25;;
62790;SDS011;48830;53.426;10.300;2022-10-18T03:19:15;25.92;;;17.02;;
62790;SDS011;48830;53.426;10.300;2022-10-18T03:21:41;27.48;;;16.35;;
62790;SDS011;48830;53.426;10.300;2022-10-18T03:24:06;26.38;;;17.10;;
62790;SDS011;48830;53.426;10.300;2022-10-18T03:26:32;30.45;;;18.02;;
62790;SDS011;48830;53.426;10.300;2022-10-18T03:28:57;27.92;;;17.70;;
62790;SDS011;48830;53.426;10.300;2022-10-18T03:31:23;32.13;;;18.35;;
62790;SDS011;48830;53.426;10.300;2022-10-18T03:33:48;26.13;;;17.33;;
62790;SDS011;48830;53.426;10.300;2022-10-18T03:36:13;28.58;;;18.02;;
62790;SDS011;48830;53.426;10.300;2022-10-18T03:38:39;24.08;;;15.77;;
62790;SDS011;48830;53.426;10.300;2022-10-18T03:41:05;31.42;;;17.17;;
62790;SDS011;48830;53.426;10.300;2022-10-18T03:43:30;28.10;;;16.60;;
62790;SDS011;48830;53.426;10.300;2022-10-18T03:45:56;23.50;;;15.60;;
62790;SDS011;48830;53.426;10.300;2022-10-18T03:48:21;23.65;;;14.75;;
62790;SDS011;48830;53.426;10.300;2022-10-18T03:50:47;25.98;;;16.45;;
62790;SDS011;48830;53.426;10.300;2022-10-18T03:53:12;24.13;;;15.90;;
62790;SDS011;48830;53.426;10.300;2022-10-18T03:55:38;24.92;;;16.45;;
62790;SDS011;48830;53.426;10.300;2022-10-18T03:58:03;26.85;;;17.38;;
62790;SDS011;48830;53.426;10.300;2022-10-18T04:00:29;24.55;;;16.77;;
62790;SDS011;48830;53.426;10.300;2022-10-18T04:02:55;25.23;;;17.23;;
62790;SDS011;48830;53.426;10.300;2022-10-18T04:05:20;27.13;;;18.13;;
62790;SDS011;48830;53.426;10.300;2022-10-18T04:07:48;24.25;;;16.80;;
62790;SDS011;48830;53.426;10.300;2022-10-18T04:10:13;27.08;;;18.10;;
62790;SDS011;48830;53.426;10.300;2022-10-18T04:12:39;27.35;;;16.90;;
62790;SDS011;48830;53.426;10.300;2022-10-18T04:15:05;32.03;;;17.80;;
62790;SDS011;48830;53.426;10.300;2022-10-18T04:17:30;25.48;;;16.83;;
62790;SDS011;48830;53.426;10.300;2022-10-18T04:19:56;29.20;;;17.67;;
62790;SDS011;48830;53.426;10.300;2022-10-18T04:22:21;30.33;;;18.52;;
62790;SDS011;48830;53.426;10.300;2022-10-18T04:24:47;28.02;;;16.30;;
62790;SDS011;48830;53.426;10.300;2022-10-18T04:27:12;27.38;;;17.33;;
62790;SDS011;48830;53.426;10.300;2022-10-18T04:29:38;28.05;;;17.52;;
62790;SDS011;48830;53.426;10.300;2022-10-18T04:32:03;28.95;;;16.75;;
62790;SDS011;48830;53.426;10.300;2022-10-18T04:34:29;27.42;;;16.10;;
62790;SDS011;48830;53.426;10.300;2022-10-18T04:36:54;24.30;;;16.35;;
62790;SDS011;48830;53.426;10.300;2022-10-18T04:39:20;31.27;;;17.60;;
62790;SDS011;48830;53.426;10.300;2022-10-18T04:41:45;27.67;;;16.58;;
62790;SDS011;48830;53.426;10.300;2022-10-18T04:44:11;27.35;;;16.10;;
62790;SDS011;48830;53.426;10.300;2022-10-18T04:46:36;24.10;;;14.65;;
62790;SDS011;48830;53.426;10.300;2022-10-18T04:49:02;21.38;;;15.38;;
62790;SDS011;48830;53.426;10.300;2022-10-18T04:51:28;23.30;;;15.70;;
62790;SDS011;48830;53.426;10.300;2022-10-18T04:53:53;24.25;;;16.80;;
62790;SDS011;48830;53.426;10.300;2022-10-18T04:56:19;27.33;;;17.17;;
62790;SDS011;48830;53.426;10.300;2022-10-18T04:58:45;31.02;;;17.27;;
62790;SDS011;48830;53.426;10.300;2022-10-18T05:01:10;27.35;;;17.42;;
62790;SDS011;48830;53.426;10.300;2022-10-18T05:03:36;26.02;;;16.55;;
62790;SDS011;48830;53.426;10.300;2022-10-18T05:06:01;27.40;;;16.85;;
62790;SDS011;48830;53.426;10.300;2022-10-18T05:08:27;26.92;;;16.38;;
62790;SDS011;48830;53.426;10.300;2022-10-18T05:10:53;27.23;;;16.08;;
62790;SDS011;48830;53.426;10.300;2022-10-18T05:13:19;25.33;;;14.60;;
62790;SDS011;48830;53.426;10.300;2022-10-18T05:15:47;23.83;;;15.23;;
62790;SDS011;48830;53.426;10.300;2022-10-18T05:18:12;23.55;;;14.88;;
62790;SDS011;48830;53.426;10.300;2022-10-18T05:20:38;21.73;;;13.90;;
62790;SDS011;48830;53.426;10.300;2022-10-18T05:23:04;24.67;;;14.05;;
62790;SDS011;48830;53.426;10.300;2022-10-18T05:25:29;22.42;;;14.20;;
62790;SDS011;48830;53.426;10.300;2022-10-18T05:27:54;22.27;;;14.57;;
62790;SDS011;48830;53.426;10.300;2022-10-18T05:30:20;20.92;;;13.75;;
62790;SDS011;48830;53.426;10.300;2022-10-18T05:32:46;19.63;;;13.70;;
62790;SDS011;48830;53.426;10.300;2022-10-18T05:35:11;21.13;;;14.88;;
62790;SDS011;48830;53.426;10.300;2022-10-18T05:37:37;22.52;;;15.43;;
62790;SDS011;48830;53.426;10.300;2022-10-18T05:40:02;24.83;;;16.55;;
62790;SDS011;48830;53.426;10.300;2022-10-18T05:42:28;26.95;;;16.58;;
62790;SDS011;48830;53.426;10.300;2022-10-18T05:44:54;28.85;;;17.27;;
62790;SDS011;48830;53.426;10.300;2022-10-18T05:47:19;29.17;;;18.60;;
62790;SDS011;48830;53.426;10.300;2022-10-18T05:49:44;32.63;;;18.92;;
62790;SDS011;48830;53.426;10.300;2022-10-18T05:52:11;26.27;;;17.60;;
62790;SDS011;48830;53.426;10.300;2022-10-18T05:54:37;25.75;;;16.63;;
62790;SDS011;48830;53.426;10.300;2022-10-18T05:57:02;23.70;;;15.38;;
62790;SDS011;48830;53.426;10.300;2022-10-18T05:59:27;24.58;;;15.45;;
62790;SDS011;48830;53.426;10.300;2022-10-18T06:01:53;23.00;;;14.82;;
62790;SDS011;48830;53.426;10.300;2022-10-18T06:04:18;21.40;;;14.65;;
62790;SDS011;48830;53.426;10.300;2022-10-18T06:06:44;21.83;;;14.68;;
62790;SDS011;48830;53.426;10.300;2022-10-18T06:09:09;23.75;;;13.70;;
62790;SDS011;48830;53.426;10.300;2022-10-18T06:11:35;25.33;;;13.68;;
62790;SDS011;48830;53.426;10.300;2022-10-18T06:14:01;19.10;;;12.98;;
62790;SDS011;48830;53.426;10.300;2022-10-18T06:16:26;22.00;;;13.65;;
62790;SDS011;48830;53.426;10.300;2022-10-18T06:18:53;22.92;;;14.65;;
62790;SDS011;48830;53.426;10.300;2022-10-18T06:21:20;22.98;;;15.35;;
62790;SDS011;48830;53.426;10.300;2022-10-18T06:23:49;26.15;;;17.05;;
62790;SDS011;48830;53.426;10.300;2022-10-18T06:26:19;26.02;;;15.40;;
62790;SDS011;48830;53.426;10.300;2022-10-18T06:28:45;22.25;;;14.45;;
62790;SDS011;48830;53.426;10.300;2022-10-18T06:31:10;22.95;;;13.93;;
62790;SDS011;48830;53.426;10.300;2022-10-18T06:33:36;21.85;;;14.45;;
62790;SDS011;48830;53.426;10.300;2022-10-18T06:36:03;23.30;;;14.68;;
62790;SDS011;48830;53.426;10.300;2022-10-18T06:38:40;23.20;;;15.30;;
62790;SDS011;48830;53.426;10.300;2022-10-18T06:41:06;20.98;;;13.85;;
62790;SDS011;48830;53.426;10.300;2022-10-18T06:43:33;20.33;;;12.52;;
62790;SDS011;48830;53.426;10.300;2022-10-18T06:45:59;21.98;;;13.65;;
62790;SDS011;48830;53.426;10.300;2022-10-18T06:48:27;21.52;;;13.32;;
62790;SDS011;48830;53.426;10.300;2022-10-18T06:50:57;24.25;;;13.77;;
62790;SDS011;48830;53.426;10.300;2022-10-18T06:53:25;19.08;;;12.95;;
62790;SDS011;48830;53.426;10.300;2022-10-18T06:55:57;20.08;;;12.43;;
62790;SDS011;48830;53.426;10.300;2022-10-18T06:58:27;23.40;;;12.80;;
62790;SDS011;48830;53.426;10.300;2022-10-18T07:00:53;21.98;;;12.52;;
62790;SDS011;48830;53.426;10.300;2022-10-18T07:03:19;18.35;;;12.15;;
62790;SDS011;48830;53.426;10.300;2022-10-18T07:05:46;19.17;;;12.73;;
62790;SDS011;48830;53.426;10.300;2022-10-18T07:08:12;22.77;;;14.75;;
62790;SDS011;48830;53.426;10.300;2022-10-18T07:10:37;23.98;;;14.48;;
62790;SDS011;48830;53.426;10.300;2022-10-18T07:13:03;21.50;;;13.50;;
62790;SDS011;48830;53.426;10.300;2022-10-18T07:15:28;23.15;;;14.70;;
62790;SDS011;48830;53.426;10.300;2022-10-18T07:17:54;23.95;;;14.25;;
62790;SDS011;48830;53.426;10.300;2022-10-18T07:20:19;21.90;;;14.45;;
62790;SDS011;48830;53.426;10.300;2022-10-18T07:22:44;24.08;;;14.30;;
62790;SDS011;48830;53.426;10.300;2022-10-18T07:25:10;26.52;;;15.20;;
62790;SDS011;48830;53.426;10.300;2022-10-18T07:27:36;25.77;;;15.57;;
62790;SDS011;48830;53.426;10.300;2022-10-18T07:30:03;29.42;;;15.77;;
62790;SDS011;48830;53.426;10.300;2022-10-18T07:32:30;29.00;;;15.95;;
62790;SDS011;48830;53.426;10.300;2022-10-18T07:34:55;28.88;;;16.52;;
62790;SDS011;48830;53.426;10.300;2022-10-18T07:37:21;30.95;;;18.20;;
62790;SDS011;48830;53.426;10.300;2022-10-18T07:39:46;31.20;;;17.25;;
62790;SDS011;48830;53.426;10.300;2022-10-18T07:42:12;27.40;;;17.30;;
62790;SDS011;48830;53.426;10.300;2022-10-18T07:44:37;26.55;;;17.13;;
62790;SDS011;48830;53.426;10.300;2022-10-18T07:47:03;28.25;;;16.52;;
62790;SDS011;48830;53.426;10.300;2022-10-18T07:49:29;30.25;;;17.35;;
62790;SDS011;48830;53.426;10.300;2022-10-18T07:51:54;26.15;;;16.10;;
62790;SDS011;48830;53.426;10.300;2022-10-18T07:54:20;27.05;;;16.25;;
62790;SDS011;48830;53.426;10.300;2022-10-18T07:56:46;29.35;;;15.88;;
62790;SDS011;48830;53.426;10.300;2022-10-18T07:59:12;34.65;;;16.30;;
62790;SDS011;48830;53.426;10.300;2022-10-18T08:01:37;26.95;;;15.75;;
62790;SDS011;48830;53.426;10.300;2022-10-18T08:04:03;28.85;;;16.45;;
62790;SDS011;48830;53.426;10.300;2022-10-18T08:06:28;32.63;;;16.52;;
62790;SDS011;48830;53.426;10.300;2022-10-18T08:08:53;25.85;;;15.57;;
62790;SDS011;48830;53.426;10.300;2022-10-18T08:11:20;25.45;;;15.05;;
62790;SDS011;48830;53.426;10.300;2022-10-18T08:13:47;28.70;;;15.75;;
62790;SDS011;48830;53.426;10.300;2022-10-18T08:16:15;29.58;;;16.38;;
62790;SDS011;48830;53.426;10.300;2022-10-18T08:18:42;26.65;;;14.57;;
62790;SDS011;48830;53.426;10.300;2022-10-18T08:21:08;32.33;;;16.00;;
62790;SDS011;48830;53.426;10.300;2022-10-18T08:23:35;26.50;;;15.30;;
62790;SDS011;48830;53.426;10.300;2022-10-18T08:26:03;25.45;;;14.73;;
62790;SDS011;48830;53.426;10.300;2022-10-18T08:28:30;27.70;;;15.32;;
62790;SDS011;48830;53.426;10.300;2022-10-18T08:30:55;31.42;;;15.93;;
62790;SDS011;48830;53.426;10.300;2022-10-18T08:33:21;27.73;;;14.27;;
62790;SDS011;48830;53.426;10.300;2022-10-18T08:35:56;25.20;;;14.95;;
62790;SDS011;48830;53.426;10.300;2022-10-18T08:38:23;27.52;;;14.23;;
62790;SDS011;48830;53.426;10.300;2022-10-18T08:40:49;27.45;;;14.60;;
62790;SDS011;48830;53.426;10.300;2022-10-18T08:45:40;25.52;;;14.00;;
62790;SDS011;48830;53.426;10.300;2022-10-18T08:48:06;24.58;;;14.43;;
62790;SDS011;48830;53.426;10.300;2022-10-18T08:50:38;26.48;;;14.07;;
62790;SDS011;48830;53.426;10.300;2022-10-18T08:55:49;28.35;;;14.50;;
62790;SDS011;48830;53.426;10.300;2022-10-18T08:58:20;26.58;;;14.60;;
62790;SDS011;48830;53.426;10.300;2022-10-18T09:03:50;22.05;;;14.52;;
62790;SDS011;48830;53.426;10.300;2022-10-18T09:14:26;25.83;;;14.35;;
62790;SDS011;48830;53.426;10.300;2022-10-18T09:19:46;26.95;;;14.43;;
62790;SDS011;48830;53.426;10.300;2022-10-18T09:27:52;23.48;;;13.10;;
62790;SDS011;48830;53.426;10.300;2022-10-18T09:30:31;21.17;;;13.57;;
62790;SDS011;48830;53.426;10.300;2022-10-18T09:33:25;18.92;;;12.00;;
62790;SDS011;48830;53.426;10.300;2022-10-18T09:35:56;20.17;;;11.85;;
62790;SDS011;48830;53.426;10.300;2022-10-18T09:38:27;18.08;;;12.15;;
62790;SDS011;48830;53.426;10.300;2022-10-18T09:40:57;19.20;;;11.52;;
62790;SDS011;48830;53.426;10.300;2022-10-18T09:43:35;19.38;;;10.73;;
62790;SDS011;48830;53.426;10.300;2022-10-18T09:46:07;13.80;;;9.02;;
62790;SDS011;48830;53.426;10.300;2022-10-18T09:51:15;14.70;;;9.80;;
62790;SDS011;48830;53.426;10.300;2022-10-18T09:56:25;15.55;;;9.13;;
62790;SDS011;48830;53.426;10.300;2022-10-18T09:58:55;16.88;;;9.02;;
62790;SDS011;48830;53.426;10.300;2022-10-18T10:01:21;15.40;;;9.38;;
62790;SDS011;48830;53.426;10.300;2022-10-18T10:03:53;14.30;;;9.05;;
62790;SDS011;48830;53.426;10.300;2022-10-18T10:06:36;13.80;;;8.95;;
62790;SDS011;48830;53.426;10.300;2022-10-18T10:09:07;12.63;;;7.07;;
62790;SDS011;48830;53.426;10.300;2022-10-18T10:11:43;13.52;;;7.75;;
62790;SDS011;48830;53.426;10.300;2022-10-18T10:14:43;12.93;;;8.27;;
62790;SDS011;48830;53.426;10.300;2022-10-18T10:17:19;11.50;;;7.30;;
62790;SDS011;48830;53.426;10.300;2022-10-18T10:22:37;12.30;;;6.10;;
62790;SDS011;48830;53.426;10.300;2022-10-18T10:25:04;13.82;;;6.72;;
62790;SDS011;48830;53.426;10.300;2022-10-18T10:32:53;11.88;;;6.75;;
62790;SDS011;48830;53.426;10.300;2022-10-18T10:35:21;13.80;;;5.95;;
62790;SDS011;48830;53.426;10.300;2022-10-18T10:37:54;10.45;;;6.03;;
62790;SDS011;48830;53.426;10.300;2022-10-18T10:40:24;11.27;;;6.03;;
62790;SDS011;48830;53.426;10.300;2022-10-18T10:45:23;9.90;;;5.63;;
62790;SDS011;48830;53.426;10.300;2022-10-18T10:47:51;10.50;;;5.70;;
62790;SDS011;48830;53.426;10.300;2022-10-18T10:50:23;12.68;;;5.10;;
62790;SDS011;48830;53.426;10.300;2022-10-18T10:52:50;9.98;;;5.10;;
62790;SDS011;48830;53.426;10.300;2022-10-18T10:55:18;10.35;;;5.03;;
62790;SDS011;48830;53.426;10.300;2022-10-18T10:57:47;11.43;;;5.10;;
62790;SDS011;48830;53.426;10.300;2022-10-18T11:03:10;7.88;;;3.55;;
62790;SDS011;48830;53.426;10.300;2022-10-18T11:05:42;8.98;;;3.33;;
62790;SDS011;48830;53.426;10.300;2022-10-18T11:08:18;9.80;;;3.33;;
62790;SDS011;48830;53.426;10.300;2022-10-18T11:13:50;6.80;;;2.80;;
62790;SDS011;48830;53.426;10.300;2022-10-18T11:16:49;8.18;;;2.90;;
62790;SDS011;48830;53.426;10.300;2022-10-18T11:22:23;5.32;;;2.30;;
62790;SDS011;48830;53.426;10.300;2022-10-18T11:24:51;8.63;;;2.42;;
62790;SDS011;48830;53.426;10.300;2022-10-18T11:27:18;9.00;;;3.17;;
62790;SDS011;48830;53.426;10.300;2022-10-18T11:32:51;7.80;;;3.22;;
62790;SDS011;48830;53.426;10.300;2022-10-18T11:43:23;10.65;;;5.15;;
62790;SDS011;48830;53.426;10.300;2022-10-18T12:05:36;8.73;;;3.63;;
62790;SDS011;48830;53.426;10.300;2022-10-18T12:08:07;8.60;;;3.70;;
62790;SDS011;48830;53.426;10.300;2022-10-18T12:10:37;8.23;;;3.75;;
62790;SDS011;48830;53.426;10.300;2022-10-18T12:13:07;10.80;;;4.10;;
62790;SDS011;48830;53.426;10.300;2022-10-18T12:15:40;8.70;;;3.97;;
62790;SDS011;48830;53.426;10.300;2022-10-18T12:18:09;10.95;;;3.92;;
62790;SDS011;48830;53.426;10.300;2022-10-18T12:20:47;9.18;;;3.60;;
62790;SDS011;48830;53.426;10.300;2022-10-18T12:23:15;7.70;;;2.83;;
62790;SDS011;48830;53.426;10.300;2022-10-18T12:25:47;9.25;;;3.00;;
62790;SDS011;48830;53.426;10.300;2022-10-18T12:28:25;9.80;;;3.17;;
62790;SDS011;48830;53.426;10.300;2022-10-18T12:33:41;7.80;;;3.38;;
62790;SDS011;48830;53.426;10.300;2022-10-18T12:38:52;10.32;;;3.83;;
62790;SDS011;48830;53.426;10.300;2022-10-18T12:41:24;8.02;;;3.30;;
62790;SDS011;48830;53.426;10.300;2022-10-18T12:46:46;10.63;;;3.30;;
62790;SDS011;48830;53.426;10.300;2022-10-18T12:49:16;11.20;;;3.50;;
62790;SDS011;48830;53.426;10.300;2022-10-18T12:51:52;10.88;;;3.40;;
62790;SDS011;48830;53.426;10.300;2022-10-18T12:54:36;10.48;;;3.10;;
62790;SDS011;48830;53.426;10.300;2022-10-18T12:57:04;8.57;;;3.13;;
62790;SDS011;48830;53.426;10.300;2022-10-18T12:59:41;8.57;;;2.90;;
62790;SDS011;48830;53.426;10.300;2022-10-18T13:02:08;8.25;;;2.78;;
62790;SDS011;48830;53.426;10.300;2022-10-18T13:04:55;5.95;;;2.22;;
62790;SDS011;48830;53.426;10.300;2022-10-18T13:07:32;8.73;;;2.53;;
62790;SDS011;48830;53.426;10.300;2022-10-18T13:26:27;8.38;;;2.80;;
62790;SDS011;48830;53.426;10.300;2022-10-18T13:32:23;9.00;;;3.22;;
62790;SDS011;48830;53.426;10.300;2022-10-18T13:34:56;6.15;;;2.75;;
62790;SDS011;48830;53.426;10.300;2022-10-18T13:37:22;7.50;;;3.00;;
62790;SDS011;48830;53.426;10.300;2022-10-18T13:39:50;8.13;;;2.92;;
62790;SDS011;48830;53.426;10.300;2022-10-18T13:42:36;7.35;;;2.97;;
62790;SDS011;48830;53.426;10.300;2022-10-18T13:47:55;8.60;;;3.17;;
62790;SDS011;48830;53.426;10.300;2022-10-18T13:50:23;9.85;;;2.83;;
62790;SDS011;48830;53.426;10.300;2022-10-18T13:53:39;10.60;;;2.90;;
62790;SDS011;48830;53.426;10.300;2022-10-18T13:56:03;8.77;;;2.70;;
62790;SDS011;48830;53.426;10.300;2022-10-18T13:58:44;10.27;;;2.58;;
62790;SDS011;48830;53.426;10.300;2022-10-18T14:01:27;7.57;;;2.50;;
62790;SDS011;48830;53.426;10.300;2022-10-18T14:04:12;9.95;;;2.58;;
62790;SDS011;48830;53.426;10.300;2022-10-18T14:07:01;7.35;;;2.20;;
62790;SDS011;48830;53.426;10.300;2022-10-18T14:09:50;9.77;;;2.42;;
62790;SDS011;48830;53.426;10.300;2022-10-18T14:25:26;7.88;;;2.42;;
62790;SDS011;48830;53.426;10.300;2022-10-18T14:38:34;7.47;;;1.95;;
62790;SDS011;48830;53.426;10.300;2022-10-18T14:41:05;9.30;;;2.47;;
62790;SDS011;48830;53.426;10.300;2022-10-18T14:43:39;6.75;;;2.03;;
62790;SDS011;48830;53.426;10.300;2022-10-18T14:46:24;9.15;;;2.35;;
62790;SDS011;48830;53.426;10.300;2022-10-18T14:48:57;9.23;;;2.22;;
62790;SDS011;48830;53.426;10.300;2022-10-18T14:51:24;10.23;;;2.45;;
62790;SDS011;48830;53.426;10.300;2022-10-18T14:53:52;6.22;;;2.05;;
62790;SDS011;48830;53.426;10.300;2022-10-18T14:56:22;9.20;;;2.53;;
62790;SDS011;48830;53.426;10.300;2022-10-18T14:58:51;9.57;;;2.50;;
62790;SDS011;48830;53.426;10.300;2022-10-18T15:01:19;9.55;;;2.25;;
62790;SDS011;48830;53.426;10.300;2022-10-18T15:03:47;9.75;;;1.98;;
62790;SDS011;48830;53.426;10.300;2022-10-18T15:06:17;6.50;;;2.10;;
62790;SDS011;48830;53.426;10.300;2022-10-18T15:08:44;7.18;;;2.15;;
62790;SDS011;48830;53.426;10.300;2022-10-18T15:11:23;8.68;;;2.00;;
62790;SDS011;48830;53.426;10.300;2022-10-18T15:13:57;7.63;;;2.38;;
62790;SDS011;48830;53.426;10.300;2022-10-18T15:16:27;7.88;;;1.92;;
62790;SDS011;48830;53.426;10.300;2022-10-18T15:19:02;10.40;;;2.20;;
62790;SDS011;48830;53.426;10.300;2022-10-18T15:21:28;8.43;;;2.28;;
62790;SDS011;48830;53.426;10.300;2022-10-18T15:23:54;7.88;;;2.13;;
62790;SDS011;48830;53.426;10.300;2022-10-18T15:29:49;8.43;;;2.10;;
62790;SDS011;48830;53.426;10.300;2022-10-18T15:32:34;8.70;;;2.15;;
62790;SDS011;48830;53.426;10.300;2022-10-18T15:35:13;7.72;;;2.28;;
62790;SDS011;48830;53.426;10.300;2022-10-18T15:37:42;9.93;;;2.60;;
62790;SDS011;48830;53.426;10.300;2022-10-18T15:40:17;11.00;;;2.35;;
62790;SDS011;48830;53.426;10.300;2022-10-18T15:42:46;13.45;;;2.63;;
62790;SDS011;48830;53.426;10.300;2022-10-18T15:48:00;11.45;;;2.20;;
62790;SDS011;48830;53.426;10.300;2022-10-18T15:50:39;9.02;;;2.20;;
62790;SDS011;48830;53.426;10.300;2022-10-18T15:58:24;14.15;;;2.45;;
62790;SDS011;48830;53.426;10.300;2022-10-18T16:00:51;11.68;;;2.78;;
62790;SDS011;48830;53.426;10.300;2022-10-18T16:03:20;7.65;;;2.22;;
62790;SDS011;48830;53.426;10.300;2022-10-18T16:05:48;11.40;;;2.25;;
62790;SDS011;48830;53.426;10.300;2022-10-18T16:08:19;8.65;;;2.30;;
62790;SDS011;48830;53.426;10.300;2022-10-18T16:10:47;7.35;;;2.20;;
62790;SDS011;48830;53.426;10.300;2022-10-18T16:13:12;12.13;;;2.72;;
62790;SDS011;48830;53.426;10.300;2022-10-18T16:15:38;10.05;;;2.30;;
62790;SDS011;48830;53.426;10.300;2022-10-18T16:18:04;11.60;;;2.20;;
62790;SDS011;48830;53.426;10.300;2022-10-18T16:20:29;9.95;;;2.67;;
62790;SDS011;48830;53.426;10.300;2022-10-18T16:22:54;13.27;;;2.80;;
62790;SDS011;48830;53.426;10.300;2022-10-18T16:25:20;12.77;;;2.80;;
62790;SDS011;48830;53.426;10.300;2022-10-18T16:27:45;8.52;;;2.80;;
62790;SDS011;48830;53.426;10.300;2022-10-18T16:30:12;11.70;;;2.53;;
62790;SDS011;48830;53.426;10.300;2022-10-18T16:32:40;11.60;;;2.55;;
62790;SDS011;48830;53.426;10.300;2022-10-18T16:35:05;10.25;;;2.30;;
62790;SDS011;48830;53.426;10.300;2022-10-18T16:37:31;11.93;;;2.83;;
62790;SDS011;48830;53.426;10.300;2022-10-18T16:39:57;11.43;;;2.63;;
62790;SDS011;48830;53.426;10.300;2022-10-18T16:42:22;10.30;;;2.50;;
62790;SDS011;48830;53.426;10.300;2022-10-18T16:44:48;7.85;;;2.03;;
62790;SDS011;48830;53.426;10.300;2022-10-18T16:47:13;20.48;;;2.65;;
62790;SDS011;48830;53.426;10.300;2022-10-18T16:49:39;9.15;;;2.85;;
62790;SDS011;48830;53.426;10.300;2022-10-18T16:52:04;9.40;;;2.55;;
62790;SDS011;48830;53.426;10.300;2022-10-18T16:54:30;9.38;;;2.17;;
62790;SDS011;48830;53.426;10.300;2022-10-18T16:56:55;9.20;;;2.30;;
62790;SDS011;48830;53.426;10.300;2022-10-18T16:59:23;9.63;;;2.67;;
62790;SDS011;48830;53.426;10.300;2022-10-18T17:01:51;9.77;;;2.22;;
62790;SDS011;48830;53.426;10.300;2022-10-18T17:04:16;9.75;;;2.75;;
62790;SDS011;48830;53.426;10.300;2022-10-18T17:06:41;10.90;;;2.53;;
62790;SDS011;48830;53.426;10.300;2022-10-18T17:09:07;9.68;;;2.42;;
62790;SDS011;48830;53.426;10.300;2022-10-18T17:11:33;15.70;;;2.90;;
62790;SDS011;48830;53.426;10.300;2022-10-18T17:13:58;7.95;;;2.50;;
62790;SDS011;48830;53.426;10.300;2022-10-18T17:16:24;9.15;;;2.20;;
62790;SDS011;48830;53.426;10.300;2022-10-18T17:18:58;11.95;;;2.30;;
62790;SDS011;48830;53.426;10.300;2022-10-18T17:21:25;10.23;;;2.55;;
62790;SDS011;48830;53.426;10.300;2022-10-18T17:23:52;12.82;;;2.72;;
62790;SDS011;48830;53.426;10.300;2022-10-18T17:26:18;10.95;;;2.35;;